sensor_id;sensor_type;location;lat;lon;timestamp;temperature;humidity
40738;DHT22;54759;48.094;-1.628;2022-07-23T00:00:20;24.50;51.10
40738;DHT22;54759;48.094;-1.628;2022-07-23T00:03:21;24.50;51.80
40738;DHT22;54759;48.094;-1.628;2022-07-23T00:06:24;24.50;51.20
40738;DHT22;54759;48.094;-1.628;2022-07-23T00:09:25;24.50;51.30
40738;DHT22;54759;48.094;-1.628;2022-07-23T00:12:29;24.50;51.30
40738;DHT22;54759;48.094;-1.628;2022-07-23T00:15:31;24.40;51.20
40738;DHT22;54759;48.094;-1.628;2022-07-23T00:18:32;24.40;51.30
40738;DHT22;54759;48.094;-1.628;2022-07-23T00:21:35;24.40;51.30
40738;DHT22;54759;48.094;-1.628;2022-07-23T00:24:36;24.40;51.30
40738;DHT22;54759;48.094;-1.628;2022-07-23T00:27:38;24.40;51.30
40738;DHT22;54759;48.094;-1.628;2022-07-23T00:30:40;24.40;51.40
40738;DHT22;54759;48.094;-1.628;2022-07-23T00:33:42;24.40;51.30
40738;DHT22;54759;48.094;-1.628;2022-07-23T00:36:47;24.30;51.30
40738;DHT22;54759;48.094;-1.628;2022-07-23T00:39:52;24.40;51.40
40738;DHT22;54759;48.094;-1.628;2022-07-23T00:42:53;24.40;51.40
40738;DHT22;54759;48.094;-1.628;2022-07-23T00:45:55;24.40;51.40
40738;DHT22;54759;48.094;-1.628;2022-07-23T00:48:57;24.40;51.40
40738;DHT22;54759;48.094;-1.628;2022-07-23T00:52:01;24.40;51.40
40738;DHT22;54759;48.094;-1.628;2022-07-23T00:55:05;24.30;51.40
40738;DHT22;54759;48.094;-1.628;2022-07-23T00:58:06;24.40;51.40
40738;DHT22;54759;48.094;-1.628;2022-07-23T01:01:10;24.40;51.50
40738;DHT22;54759;48.094;-1.628;2022-07-23T01:04:13;24.40;51.40
40738;DHT22;54759;48.094;-1.628;2022-07-23T01:07:17;24.40;51.50
40738;DHT22;54759;48.094;-1.628;2022-07-23T01:10:18;24.20;51.40
40738;DHT22;54759;48.094;-1.628;2022-07-23T01:13:32;24.30;51.50
40738;DHT22;54759;48.094;-1.628;2022-07-23T01:16:33;24.40;51.50
40738;DHT22;54759;48.094;-1.628;2022-07-23T01:19:35;24.40;51.50
40738;DHT22;54759;48.094;-1.628;2022-07-23T01:22:37;24.40;51.60
40738;DHT22;54759;48.094;-1.628;2022-07-23T01:25:47;24.30;51.50
40738;DHT22;54759;48.094;-1.628;2022-07-23T01:28:49;24.40;51.60
40738;DHT22;54759;48.094;-1.628;2022-07-23T01:31:51;24.20;51.50
40738;DHT22;54759;48.094;-1.628;2022-07-23T01:34:53;24.30;51.50
40738;DHT22;54759;48.094;-1.628;2022-07-23T01:37:55;24.30;51.50
40738;DHT22;54759;48.094;-1.628;2022-07-23T01:40:57;24.30;51.50
40738;DHT22;54759;48.094;-1.628;2022-07-23T01:44:04;24.30;51.50
40738;DHT22;54759;48.094;-1.628;2022-07-23T01:47:06;24.30;51.50
40738;DHT22;54759;48.094;-1.628;2022-07-23T01:50:08;24.30;51.60
40738;DHT22;54759;48.094;-1.628;2022-07-23T01:53:22;24.60;51.70
40738;DHT22;54759;48.094;-1.628;2022-07-23T01:56:23;24.30;51.60
40738;DHT22;54759;48.094;-1.628;2022-07-23T01:59:26;24.20;51.60
40738;DHT22;54759;48.094;-1.628;2022-07-23T02:02:27;24.20;51.50
40738;DHT22;54759;48.094;-1.628;2022-07-23T02:05:29;24.30;51.60
40738;DHT22;54759;48.094;-1.628;2022-07-23T02:08:36;24.20;51.60
40738;DHT22;54759;48.094;-1.628;2022-07-23T02:11:41;24.20;51.70
40738;DHT22;54759;48.094;-1.628;2022-07-23T02:14:43;24.30;51.70
40738;DHT22;54759;48.094;-1.628;2022-07-23T02:17:46;24.20;51.60
40738;DHT22;54759;48.094;-1.628;2022-07-23T02:20:48;24.30;51.70
40738;DHT22;54759;48.094;-1.628;2022-07-23T02:23:50;24.20;51.70
40738;DHT22;54759;48.094;-1.628;2022-07-23T02:26:51;24.20;51.70
40738;DHT22;54759;48.094;-1.628;2022-07-23T02:29:53;24.20;51.70
40738;DHT22;54759;48.094;-1.628;2022-07-23T02:32:55;24.20;51.70
40738;DHT22;54759;48.094;-1.628;2022-07-23T02:35:58;24.20;51.70
40738;DHT22;54759;48.094;-1.628;2022-07-23T02:39:00;24.20;51.80
40738;DHT22;54759;48.094;-1.628;2022-07-23T02:42:05;24.20;51.80
40738;DHT22;54759;48.094;-1.628;2022-07-23T02:45:09;24.20;51.80
40738;DHT22;54759;48.094;-1.628;2022-07-23T02:48:10;24.10;51.70
40738;DHT22;54759;48.094;-1.628;2022-07-23T02:51:14;24.20;51.80
40738;DHT22;54759;48.094;-1.628;2022-07-23T02:54:24;24.30;51.90
40738;DHT22;54759;48.094;-1.628;2022-07-23T02:57:26;24.10;51.80
40738;DHT22;54759;48.094;-1.628;2022-07-23T03:00:28;24.00;51.80
40738;DHT22;54759;48.094;-1.628;2022-07-23T03:03:30;24.00;51.80
40738;DHT22;54759;48.094;-1.628;2022-07-23T03:06:31;24.20;51.90
40738;DHT22;54759;48.094;-1.628;2022-07-23T03:09:33;24.10;51.90
40738;DHT22;54759;48.094;-1.628;2022-07-23T03:12:35;24.00;51.80
40738;DHT22;54759;48.094;-1.628;2022-07-23T03:15:37;24.00;51.80
40738;DHT22;54759;48.094;-1.628;2022-07-23T03:18:39;24.00;51.80
40738;DHT22;54759;48.094;-1.628;2022-07-23T03:21:42;24.10;51.90
40738;DHT22;54759;48.094;-1.628;2022-07-23T03:24:44;24.00;51.80
40738;DHT22;54759;48.094;-1.628;2022-07-23T03:28:05;24.00;51.90
40738;DHT22;54759;48.094;-1.628;2022-07-23T03:31:06;24.00;51.90
40738;DHT22;54759;48.094;-1.628;2022-07-23T03:34:08;24.00;51.90
40738;DHT22;54759;48.094;-1.628;2022-07-23T03:37:10;24.00;52.00
40738;DHT22;54759;48.094;-1.628;2022-07-23T03:40:16;24.00;52.00
40738;DHT22;54759;48.094;-1.628;2022-07-23T03:43:21;24.10;52.00
40738;DHT22;54759;48.094;-1.628;2022-07-23T03:46:25;24.00;52.00
40738;DHT22;54759;48.094;-1.628;2022-07-23T03:49:30;24.00;52.00
40738;DHT22;54759;48.094;-1.628;2022-07-23T03:52:31;24.00;52.00
40738;DHT22;54759;48.094;-1.628;2022-07-23T03:55:34;24.00;52.00
40738;DHT22;54759;48.094;-1.628;2022-07-23T03:58:35;24.10;52.10
40738;DHT22;54759;48.094;-1.628;2022-07-23T04:01:37;24.00;52.00
40738;DHT22;54759;48.094;-1.628;2022-07-23T04:04:38;24.10;52.10
40738;DHT22;54759;48.094;-1.628;2022-07-23T04:07:40;24.00;52.00
40738;DHT22;54759;48.094;-1.628;2022-07-23T04:10:42;24.00;52.00
40738;DHT22;54759;48.094;-1.628;2022-07-23T04:13:45;24.00;52.10
40738;DHT22;54759;48.094;-1.628;2022-07-23T04:16:48;23.80;52.00
40738;DHT22;54759;48.094;-1.628;2022-07-23T04:19:50;24.00;52.10
40738;DHT22;54759;48.094;-1.628;2022-07-23T04:22:56;24.00;52.10
40738;DHT22;54759;48.094;-1.628;2022-07-23T04:25:58;24.00;52.10
40738;DHT22;54759;48.094;-1.628;2022-07-23T04:29:00;23.90;52.10
40738;DHT22;54759;48.094;-1.628;2022-07-23T04:32:02;24.00;52.10
40738;DHT22;54759;48.094;-1.628;2022-07-23T04:35:04;24.10;52.20
40738;DHT22;54759;48.094;-1.628;2022-07-23T04:38:06;23.90;52.10
40738;DHT22;54759;48.094;-1.628;2022-07-23T04:41:10;23.90;52.10
40738;DHT22;54759;48.094;-1.628;2022-07-23T04:44:13;23.90;52.10
40738;DHT22;54759;48.094;-1.628;2022-07-23T04:47:15;24.00;52.10
40738;DHT22;54759;48.094;-1.628;2022-07-23T04:50:24;23.80;52.10
40738;DHT22;54759;48.094;-1.628;2022-07-23T04:53:32;24.00;52.20
40738;DHT22;54759;48.094;-1.628;2022-07-23T04:56:35;23.90;52.20
40738;DHT22;54759;48.094;-1.628;2022-07-23T04:59:37;23.90;52.20
40738;DHT22;54759;48.094;-1.628;2022-07-23T05:02:39;23.80;52.10
40738;DHT22;54759;48.094;-1.628;2022-07-23T05:05:41;23.90;52.20
40738;DHT22;54759;48.094;-1.628;2022-07-23T05:08:47;23.90;52.20
40738;DHT22;54759;48.094;-1.628;2022-07-23T05:11:50;23.90;52.20
40738;DHT22;54759;48.094;-1.628;2022-07-23T05:14:52;23.90;52.20
40738;DHT22;54759;48.094;-1.628;2022-07-23T05:17:55;23.90;52.20
40738;DHT22;54759;48.094;-1.628;2022-07-23T05:21:01;23.90;52.20
40738;DHT22;54759;48.094;-1.628;2022-07-23T05:24:03;24.00;52.30
40738;DHT22;54759;48.094;-1.628;2022-07-23T05:27:05;23.70;52.20
40738;DHT22;54759;48.094;-1.628;2022-07-23T05:30:08;23.90;52.20
40738;DHT22;54759;48.094;-1.628;2022-07-23T05:33:13;23.80;52.20
40738;DHT22;54759;48.094;-1.628;2022-07-23T05:36:16;23.80;52.80
40738;DHT22;54759;48.094;-1.628;2022-07-23T05:39:24;23.80;52.20
40738;DHT22;54759;48.094;-1.628;2022-07-23T05:42:26;23.80;52.20
40738;DHT22;54759;48.094;-1.628;2022-07-23T05:45:31;23.90;52.30
40738;DHT22;54759;48.094;-1.628;2022-07-23T05:48:33;24.00;52.40
40738;DHT22;54759;48.094;-1.628;2022-07-23T05:51:47;23.90;52.60
40738;DHT22;54759;48.094;-1.628;2022-07-23T05:54:53;23.80;52.30
40738;DHT22;54759;48.094;-1.628;2022-07-23T05:57:57;23.80;52.30
40738;DHT22;54759;48.094;-1.628;2022-07-23T06:00:59;23.90;52.40
40738;DHT22;54759;48.094;-1.628;2022-07-23T06:04:03;23.80;52.40
40738;DHT22;54759;48.094;-1.628;2022-07-23T06:07:10;23.70;52.40
40738;DHT22;54759;48.094;-1.628;2022-07-23T06:10:12;23.90;52.50
40738;DHT22;54759;48.094;-1.628;2022-07-23T06:13:14;23.70;52.40
40738;DHT22;54759;48.094;-1.628;2022-07-23T06:16:16;23.80;52.40
40738;DHT22;54759;48.094;-1.628;2022-07-23T06:19:20;23.90;52.50
40738;DHT22;54759;48.094;-1.628;2022-07-23T06:22:26;23.90;52.50
40738;DHT22;54759;48.094;-1.628;2022-07-23T06:25:27;23.80;52.50
40738;DHT22;54759;48.094;-1.628;2022-07-23T06:28:29;23.90;52.50
40738;DHT22;54759;48.094;-1.628;2022-07-23T06:31:31;23.90;52.60
40738;DHT22;54759;48.094;-1.628;2022-07-23T06:34:33;23.80;52.50
40738;DHT22;54759;48.094;-1.628;2022-07-23T06:37:34;23.90;52.60
40738;DHT22;54759;48.094;-1.628;2022-07-23T06:40:36;23.90;52.70
40738;DHT22;54759;48.094;-1.628;2022-07-23T06:43:38;23.90;52.70
40738;DHT22;54759;48.094;-1.628;2022-07-23T06:46:42;23.90;52.70
40738;DHT22;54759;48.094;-1.628;2022-07-23T06:49:44;23.90;52.70
40738;DHT22;54759;48.094;-1.628;2022-07-23T06:52:46;23.90;52.80
40738;DHT22;54759;48.094;-1.628;2022-07-23T06:55:48;23.90;52.80
40738;DHT22;54759;48.094;-1.628;2022-07-23T06:58:50;23.90;52.90
40738;DHT22;54759;48.094;-1.628;2022-07-23T07:01:51;23.70;52.80
40738;DHT22;54759;48.094;-1.628;2022-07-23T07:04:53;23.90;53.00
40738;DHT22;54759;48.094;-1.628;2022-07-23T07:07:54;23.90;53.00
40738;DHT22;54759;48.094;-1.628;2022-07-23T07:10:56;23.80;53.00
40738;DHT22;54759;48.094;-1.628;2022-07-23T07:13:58;23.80;53.00
40738;DHT22;54759;48.094;-1.628;2022-07-23T07:17:00;23.90;53.10
40738;DHT22;54759;48.094;-1.628;2022-07-23T07:20:01;23.90;53.10
40738;DHT22;54759;48.094;-1.628;2022-07-23T07:23:03;23.90;53.10
40738;DHT22;54759;48.094;-1.628;2022-07-23T07:26:05;24.00;53.20
40738;DHT22;54759;48.094;-1.628;2022-07-23T07:29:07;23.90;53.20
40738;DHT22;54759;48.094;-1.628;2022-07-23T07:32:08;24.00;53.30
40738;DHT22;54759;48.094;-1.628;2022-07-23T07:35:10;24.00;53.30
40738;DHT22;54759;48.094;-1.628;2022-07-23T07:38:12;24.10;53.40
40738;DHT22;54759;48.094;-1.628;2022-07-23T07:41:13;24.20;53.40
40738;DHT22;54759;48.094;-1.628;2022-07-23T07:44:16;24.10;53.40
40738;DHT22;54759;48.094;-1.628;2022-07-23T07:47:17;24.00;53.30
40738;DHT22;54759;48.094;-1.628;2022-07-23T07:50:19;24.00;53.30
40738;DHT22;54759;48.094;-1.628;2022-07-23T07:53:24;24.00;53.40
40738;DHT22;54759;48.094;-1.628;2022-07-23T07:56:26;24.10;53.40
40738;DHT22;54759;48.094;-1.628;2022-07-23T07:59:32;24.20;53.50
40738;DHT22;54759;48.094;-1.628;2022-07-23T08:02:40;24.10;53.50
40738;DHT22;54759;48.094;-1.628;2022-07-23T08:05:42;24.00;53.40
40738;DHT22;54759;48.094;-1.628;2022-07-23T08:08:43;24.20;53.60
40738;DHT22;54759;48.094;-1.628;2022-07-23T08:11:45;24.20;53.60
40738;DHT22;54759;48.094;-1.628;2022-07-23T08:14:47;24.00;53.50
40738;DHT22;54759;48.094;-1.628;2022-07-23T08:17:49;24.10;53.60
40738;DHT22;54759;48.094;-1.628;2022-07-23T08:20:51;24.20;53.70
40738;DHT22;54759;48.094;-1.628;2022-07-23T08:23:55;24.20;53.70
40738;DHT22;54759;48.094;-1.628;2022-07-23T08:26:57;24.20;53.70
40738;DHT22;54759;48.094;-1.628;2022-07-23T08:29:59;24.20;53.70
40738;DHT22;54759;48.094;-1.628;2022-07-23T08:33:02;24.20;53.70
40738;DHT22;54759;48.094;-1.628;2022-07-23T08:36:05;24.30;53.80
40738;DHT22;54759;48.094;-1.628;2022-07-23T08:39:06;24.50;53.90
40738;DHT22;54759;48.094;-1.628;2022-07-23T08:42:08;24.30;53.80
40738;DHT22;54759;48.094;-1.628;2022-07-23T08:45:11;24.20;53.70
40738;DHT22;54759;48.094;-1.628;2022-07-23T08:48:15;24.30;53.80
40738;DHT22;54759;48.094;-1.628;2022-07-23T08:51:18;24.30;53.70
40738;DHT22;54759;48.094;-1.628;2022-07-23T08:54:21;24.40;53.80
40738;DHT22;54759;48.094;-1.628;2022-07-23T08:57:22;24.40;53.80
40738;DHT22;54759;48.094;-1.628;2022-07-23T09:00:25;24.30;53.70
40738;DHT22;54759;48.094;-1.628;2022-07-23T09:03:29;24.50;53.80
40738;DHT22;54759;48.094;-1.628;2022-07-23T09:06:33;24.30;53.70
40738;DHT22;54759;48.094;-1.628;2022-07-23T09:09:35;24.40;53.80
40738;DHT22;54759;48.094;-1.628;2022-07-23T09:12:37;24.30;53.70
40738;DHT22;54759;48.094;-1.628;2022-07-23T09:15:48;24.50;53.70
40738;DHT22;54759;48.094;-1.628;2022-07-23T09:18:56;24.50;53.70
40738;DHT22;54759;48.094;-1.628;2022-07-23T09:22:16;24.50;53.70
40738;DHT22;54759;48.094;-1.628;2022-07-23T09:25:19;24.50;53.70
40738;DHT22;54759;48.094;-1.628;2022-07-23T09:28:20;24.50;53.60
40738;DHT22;54759;48.094;-1.628;2022-07-23T09:31:23;24.50;53.50
40738;DHT22;54759;48.094;-1.628;2022-07-23T09:34:27;24.50;53.40
40738;DHT22;54759;48.094;-1.628;2022-07-23T09:37:29;24.50;53.40
40738;DHT22;54759;48.094;-1.628;2022-07-23T09:40:31;24.60;53.40
40738;DHT22;54759;48.094;-1.628;2022-07-23T09:43:32;24.60;53.30
40738;DHT22;54759;48.094;-1.628;2022-07-23T09:46:38;24.60;53.20
40738;DHT22;54759;48.094;-1.628;2022-07-23T09:49:41;24.50;53.10
40738;DHT22;54759;48.094;-1.628;2022-07-23T09:52:58;24.60;53.10
40738;DHT22;54759;48.094;-1.628;2022-07-23T09:56:00;24.70;53.10
40738;DHT22;54759;48.094;-1.628;2022-07-23T09:59:02;24.60;52.90
40738;DHT22;54759;48.094;-1.628;2022-07-23T10:02:08;24.70;52.90
40738;DHT22;54759;48.094;-1.628;2022-07-23T10:05:23;24.90;52.80
40738;DHT22;54759;48.094;-1.628;2022-07-23T10:08:48;24.70;52.60
40738;DHT22;54759;48.094;-1.628;2022-07-23T10:12:13;24.70;52.40
40738;DHT22;54759;48.094;-1.628;2022-07-23T10:15:34;24.80;52.40
40738;DHT22;54759;48.094;-1.628;2022-07-23T10:18:37;24.70;52.20
40738;DHT22;54759;48.094;-1.628;2022-07-23T10:21:47;24.90;52.00
40738;DHT22;54759;48.094;-1.628;2022-07-23T10:24:56;24.80;51.80
40738;DHT22;54759;48.094;-1.628;2022-07-23T10:28:17;24.60;51.60
40738;DHT22;54759;48.094;-1.628;2022-07-23T10:31:30;24.80;52.10
40738;DHT22;54759;48.094;-1.628;2022-07-23T10:35:07;24.90;51.60
40738;DHT22;54759;48.094;-1.628;2022-07-23T10:38:15;24.80;51.40
40738;DHT22;54759;48.094;-1.628;2022-07-23T10:44:39;24.80;51.20
40738;DHT22;54759;48.094;-1.628;2022-07-23T10:47:41;24.80;51.00
40738;DHT22;54759;48.094;-1.628;2022-07-23T10:51:10;24.80;51.00
40738;DHT22;54759;48.094;-1.628;2022-07-23T10:54:21;24.90;50.90
40738;DHT22;54759;48.094;-1.628;2022-07-23T10:57:23;24.70;50.80
40738;DHT22;54759;48.094;-1.628;2022-07-23T11:00:26;24.90;50.80
40738;DHT22;54759;48.094;-1.628;2022-07-23T11:03:31;24.90;50.80
40738;DHT22;54759;48.094;-1.628;2022-07-23T11:10:31;24.80;50.60
40738;DHT22;54759;48.094;-1.628;2022-07-23T11:13:38;24.70;50.30
40738;DHT22;54759;48.094;-1.628;2022-07-23T11:16:46;24.80;50.40
40738;DHT22;54759;48.094;-1.628;2022-07-23T11:23:21;24.80;50.10
40738;DHT22;54759;48.094;-1.628;2022-07-23T11:26:42;25.00;50.10
40738;DHT22;54759;48.094;-1.628;2022-07-23T11:29:45;24.90;49.80
40738;DHT22;54759;48.094;-1.628;2022-07-23T11:32:49;25.00;49.80
40738;DHT22;54759;48.094;-1.628;2022-07-23T11:36:00;24.90;49.60
40738;DHT22;54759;48.094;-1.628;2022-07-23T11:39:04;25.00;49.60
40738;DHT22;54759;48.094;-1.628;2022-07-23T11:42:07;24.90;49.40
40738;DHT22;54759;48.094;-1.628;2022-07-23T11:45:12;25.00;49.30
40738;DHT22;54759;48.094;-1.628;2022-07-23T11:48:18;24.90;49.20
40738;DHT22;54759;48.094;-1.628;2022-07-23T11:51:25;24.90;49.10
40738;DHT22;54759;48.094;-1.628;2022-07-23T11:54:27;24.90;49.00
40738;DHT22;54759;48.094;-1.628;2022-07-23T11:57:32;24.90;49.00
40738;DHT22;54759;48.094;-1.628;2022-07-23T12:00:34;24.90;48.80
40738;DHT22;54759;48.094;-1.628;2022-07-23T12:03:49;25.00;48.70
40738;DHT22;54759;48.094;-1.628;2022-07-23T12:06:51;24.90;48.50
40738;DHT22;54759;48.094;-1.628;2022-07-23T12:09:54;25.00;48.50
40738;DHT22;54759;48.094;-1.628;2022-07-23T12:12:57;25.00;48.40
40738;DHT22;54759;48.094;-1.628;2022-07-23T12:16:03;25.00;48.30
40738;DHT22;54759;48.094;-1.628;2022-07-23T12:19:06;25.00;48.20
40738;DHT22;54759;48.094;-1.628;2022-07-23T12:22:07;25.00;48.10
40738;DHT22;54759;48.094;-1.628;2022-07-23T12:25:11;25.10;48.10
40738;DHT22;54759;48.094;-1.628;2022-07-23T12:28:15;25.00;47.90
40738;DHT22;54759;48.094;-1.628;2022-07-23T12:31:26;25.30;48.10
40738;DHT22;54759;48.094;-1.628;2022-07-23T12:34:28;25.00;47.70
40738;DHT22;54759;48.094;-1.628;2022-07-23T12:37:31;25.10;47.70
40738;DHT22;54759;48.094;-1.628;2022-07-23T12:40:35;25.10;47.60
40738;DHT22;54759;48.094;-1.628;2022-07-23T12:43:40;25.20;47.50
40738;DHT22;54759;48.094;-1.628;2022-07-23T12:46:42;25.10;47.80
40738;DHT22;54759;48.094;-1.628;2022-07-23T12:49:44;25.10;47.20
40738;DHT22;54759;48.094;-1.628;2022-07-23T12:52:50;25.00;47.10
40738;DHT22;54759;48.094;-1.628;2022-07-23T12:55:58;25.10;47.00
40738;DHT22;54759;48.094;-1.628;2022-07-23T12:59:17;25.10;47.10
40738;DHT22;54759;48.094;-1.628;2022-07-23T13:02:20;25.00;46.60
40738;DHT22;54759;48.094;-1.628;2022-07-23T13:05:25;25.10;46.60
40738;DHT22;54759;48.094;-1.628;2022-07-23T13:08:31;25.10;46.40
40738;DHT22;54759;48.094;-1.628;2022-07-23T13:11:35;25.10;46.30
40738;DHT22;54759;48.094;-1.628;2022-07-23T13:14:38;25.10;46.20
40738;DHT22;54759;48.094;-1.628;2022-07-23T13:17:40;25.10;46.20
40738;DHT22;54759;48.094;-1.628;2022-07-23T13:20:42;25.10;46.10
40738;DHT22;54759;48.094;-1.628;2022-07-23T13:23:48;25.00;45.90
40738;DHT22;54759;48.094;-1.628;2022-07-23T13:26:53;25.10;45.90
40738;DHT22;54759;48.094;-1.628;2022-07-23T13:29:55;25.10;45.90
40738;DHT22;54759;48.094;-1.628;2022-07-23T13:32:57;25.20;46.00
40738;DHT22;54759;48.094;-1.628;2022-07-23T13:36:02;25.10;45.90
40738;DHT22;54759;48.094;-1.628;2022-07-23T13:39:05;25.10;45.80
40738;DHT22;54759;48.094;-1.628;2022-07-23T13:42:08;25.20;45.80
40738;DHT22;54759;48.094;-1.628;2022-07-23T13:45:13;25.20;45.80
40738;DHT22;54759;48.094;-1.628;2022-07-23T13:48:15;25.10;45.70
40738;DHT22;54759;48.094;-1.628;2022-07-23T13:51:16;25.00;45.60
40738;DHT22;54759;48.094;-1.628;2022-07-23T13:54:19;25.20;45.70
40738;DHT22;54759;48.094;-1.628;2022-07-23T13:57:23;25.10;45.60
40738;DHT22;54759;48.094;-1.628;2022-07-23T14:00:26;25.10;45.60
40738;DHT22;54759;48.094;-1.628;2022-07-23T14:03:48;25.20;45.60
40738;DHT22;54759;48.094;-1.628;2022-07-23T14:06:50;25.20;45.60
40738;DHT22;54759;48.094;-1.628;2022-07-23T14:09:55;25.10;45.50
40738;DHT22;54759;48.094;-1.628;2022-07-23T14:12:57;25.20;45.50
40738;DHT22;54759;48.094;-1.628;2022-07-23T14:16:00;25.20;45.50
40738;DHT22;54759;48.094;-1.628;2022-07-23T14:19:02;25.20;45.50
40738;DHT22;54759;48.094;-1.628;2022-07-23T14:22:04;25.10;45.40
40738;DHT22;54759;48.094;-1.628;2022-07-23T14:25:09;25.00;45.30
40738;DHT22;54759;48.094;-1.628;2022-07-23T14:28:11;25.20;45.40
40738;DHT22;54759;48.094;-1.628;2022-07-23T14:31:14;25.10;45.30
40738;DHT22;54759;48.094;-1.628;2022-07-23T14:34:22;25.20;45.30
40738;DHT22;54759;48.094;-1.628;2022-07-23T14:37:29;25.20;45.30
40738;DHT22;54759;48.094;-1.628;2022-07-23T14:40:32;25.10;45.10
40738;DHT22;54759;48.094;-1.628;2022-07-23T14:43:34;25.20;45.20
40738;DHT22;54759;48.094;-1.628;2022-07-23T14:46:40;25.10;45.00
40738;DHT22;54759;48.094;-1.628;2022-07-23T14:49:42;25.30;45.10
40738;DHT22;54759;48.094;-1.628;2022-07-23T14:52:49;25.20;45.00
40738;DHT22;54759;48.094;-1.628;2022-07-23T14:55:51;25.30;45.10
40738;DHT22;54759;48.094;-1.628;2022-07-23T14:58:53;25.30;45.10
40738;DHT22;54759;48.094;-1.628;2022-07-23T15:01:58;25.10;44.90
40738;DHT22;54759;48.094;-1.628;2022-07-23T15:04:59;25.20;45.00
40738;DHT22;54759;48.094;-1.628;2022-07-23T15:08:02;25.10;44.90
40738;DHT22;54759;48.094;-1.628;2022-07-23T15:11:03;25.20;45.00
40738;DHT22;54759;48.094;-1.628;2022-07-23T15:14:05;25.10;44.90
40738;DHT22;54759;48.094;-1.628;2022-07-23T15:17:08;25.20;44.90
40738;DHT22;54759;48.094;-1.628;2022-07-23T15:20:10;25.20;44.90
40738;DHT22;54759;48.094;-1.628;2022-07-23T15:23:12;25.20;44.90
40738;DHT22;54759;48.094;-1.628;2022-07-23T15:26:16;25.10;44.80
40738;DHT22;54759;48.094;-1.628;2022-07-23T15:29:22;25.20;44.90
40738;DHT22;54759;48.094;-1.628;2022-07-23T15:32:27;25.30;44.90
40738;DHT22;54759;48.094;-1.628;2022-07-23T15:35:30;25.10;44.70
40738;DHT22;54759;48.094;-1.628;2022-07-23T15:38:32;25.30;44.80
40738;DHT22;54759;48.094;-1.628;2022-07-23T15:41:34;25.20;44.80
40738;DHT22;54759;48.094;-1.628;2022-07-23T15:44:35;25.40;44.80
40738;DHT22;54759;48.094;-1.628;2022-07-23T15:47:38;25.30;44.80
40738;DHT22;54759;48.094;-1.628;2022-07-23T15:50:41;25.20;44.70
40738;DHT22;54759;48.094;-1.628;2022-07-23T15:54:02;25.20;44.60
40738;DHT22;54759;48.094;-1.628;2022-07-23T15:57:04;25.10;44.60
40738;DHT22;54759;48.094;-1.628;2022-07-23T16:00:09;25.30;45.00
40738;DHT22;54759;48.094;-1.628;2022-07-23T16:03:11;25.30;44.70
40738;DHT22;54759;48.094;-1.628;2022-07-23T16:06:13;25.30;44.80
40738;DHT22;54759;48.094;-1.628;2022-07-23T16:09:37;25.30;44.80
40738;DHT22;54759;48.094;-1.628;2022-07-23T16:12:39;25.30;44.80
40738;DHT22;54759;48.094;-1.628;2022-07-23T16:15:41;25.30;44.80
40738;DHT22;54759;48.094;-1.628;2022-07-23T16:18:43;25.30;44.80
40738;DHT22;54759;48.094;-1.628;2022-07-23T16:21:48;25.40;44.90
40738;DHT22;54759;48.094;-1.628;2022-07-23T16:24:51;25.30;44.80
40738;DHT22;54759;48.094;-1.628;2022-07-23T16:27:53;25.30;44.90
40738;DHT22;54759;48.094;-1.628;2022-07-23T16:30:55;25.30;45.00
40738;DHT22;54759;48.094;-1.628;2022-07-23T16:33:57;25.30;45.10
40738;DHT22;54759;48.094;-1.628;2022-07-23T16:36:59;25.30;45.10
40738;DHT22;54759;48.094;-1.628;2022-07-23T16:40:05;25.40;45.20
40738;DHT22;54759;48.094;-1.628;2022-07-23T16:43:07;25.30;45.40
40738;DHT22;54759;48.094;-1.628;2022-07-23T16:46:09;25.30;45.90
40738;DHT22;54759;48.094;-1.628;2022-07-23T16:49:11;25.30;45.20
40738;DHT22;54759;48.094;-1.628;2022-07-23T16:52:13;25.40;46.00
40738;DHT22;54759;48.094;-1.628;2022-07-23T16:55:15;25.30;45.40
40738;DHT22;54759;48.094;-1.628;2022-07-23T16:58:17;25.40;45.50
40738;DHT22;54759;48.094;-1.628;2022-07-23T17:01:18;25.40;45.60
40738;DHT22;54759;48.094;-1.628;2022-07-23T17:04:21;25.40;45.60
40738;DHT22;54759;48.094;-1.628;2022-07-23T17:07:22;25.40;45.70
40738;DHT22;54759;48.094;-1.628;2022-07-23T17:10:24;25.40;45.70
40738;DHT22;54759;48.094;-1.628;2022-07-23T17:13:26;25.50;45.90
40738;DHT22;54759;48.094;-1.628;2022-07-23T17:16:27;25.40;45.80
40738;DHT22;54759;48.094;-1.628;2022-07-23T17:19:30;25.50;45.80
40738;DHT22;54759;48.094;-1.628;2022-07-23T17:22:32;25.50;45.80
40738;DHT22;54759;48.094;-1.628;2022-07-23T17:25:33;25.50;45.70
40738;DHT22;54759;48.094;-1.628;2022-07-23T17:28:35;25.50;45.70
40738;DHT22;54759;48.094;-1.628;2022-07-23T17:31:37;25.50;45.70
40738;DHT22;54759;48.094;-1.628;2022-07-23T17:34:39;25.50;45.70
40738;DHT22;54759;48.094;-1.628;2022-07-23T17:37:41;25.50;45.60
40738;DHT22;54759;48.094;-1.628;2022-07-23T17:40:43;25.50;45.60
40738;DHT22;54759;48.094;-1.628;2022-07-23T17:43:45;25.40;45.50
40738;DHT22;54759;48.094;-1.628;2022-07-23T17:46:47;25.50;45.60
40738;DHT22;54759;48.094;-1.628;2022-07-23T17:49:49;25.70;45.60
40738;DHT22;54759;48.094;-1.628;2022-07-23T17:52:52;25.60;45.60
40738;DHT22;54759;48.094;-1.628;2022-07-23T17:55:55;25.40;45.40
40738;DHT22;54759;48.094;-1.628;2022-07-23T17:58:56;25.60;45.50
40738;DHT22;54759;48.094;-1.628;2022-07-23T18:01:58;25.50;45.50
40738;DHT22;54759;48.094;-1.628;2022-07-23T18:05:01;25.60;45.60
40738;DHT22;54759;48.094;-1.628;2022-07-23T18:08:02;25.60;45.60
40738;DHT22;54759;48.094;-1.628;2022-07-23T18:11:04;25.60;45.60
40738;DHT22;54759;48.094;-1.628;2022-07-23T18:14:07;25.60;45.60
40738;DHT22;54759;48.094;-1.628;2022-07-23T18:17:09;25.60;45.60
40738;DHT22;54759;48.094;-1.628;2022-07-23T18:20:12;25.50;45.60
40738;DHT22;54759;48.094;-1.628;2022-07-23T18:23:14;25.70;45.70
40738;DHT22;54759;48.094;-1.628;2022-07-23T18:26:16;25.60;45.70
40738;DHT22;54759;48.094;-1.628;2022-07-23T18:29:17;25.70;45.70
40738;DHT22;54759;48.094;-1.628;2022-07-23T18:32:19;25.60;45.60
40738;DHT22;54759;48.094;-1.628;2022-07-23T18:35:21;25.70;45.70
40738;DHT22;54759;48.094;-1.628;2022-07-23T18:38:24;25.60;45.70
40738;DHT22;54759;48.094;-1.628;2022-07-23T18:41:29;25.60;45.70
40738;DHT22;54759;48.094;-1.628;2022-07-23T18:44:31;25.60;45.70
40738;DHT22;54759;48.094;-1.628;2022-07-23T18:47:33;25.70;45.70
40738;DHT22;54759;48.094;-1.628;2022-07-23T18:50:36;25.70;45.70
40738;DHT22;54759;48.094;-1.628;2022-07-23T18:53:39;25.70;45.70
40738;DHT22;54759;48.094;-1.628;2022-07-23T18:56:40;25.70;45.80
40738;DHT22;54759;48.094;-1.628;2022-07-23T18:59:42;25.80;45.90
40738;DHT22;54759;48.094;-1.628;2022-07-23T19:02:44;25.70;46.00
40738;DHT22;54759;48.094;-1.628;2022-07-23T19:05:46;25.70;46.20
40738;DHT22;54759;48.094;-1.628;2022-07-23T19:08:48;25.60;46.40
40738;DHT22;54759;48.094;-1.628;2022-07-23T19:11:50;25.90;46.90